createdAt,value
2016-05-12T00:00:12.023Z,0
2016-05-12T00:01:12.354Z,0
2016-05-12T00:02:12.138Z,0
2016-05-12T00:03:11.969Z,0
2016-05-12T00:04:11.972Z,0
2016-05-12T00:05:12.114Z,0
2016-05-12T00:06:12.305Z,0
2016-05-12T00:07:11.948Z,0
2016-05-12T00:08:12.076Z,0
2016-05-12T00:09:12.266Z,0
2016-05-12T00:10:11.893Z,0
2016-05-12T00:11:11.897Z,0
2016-05-12T00:12:11.883Z,0
2016-05-12T00:13:12.027Z,0
2016-05-12T00:14:12.030Z,0
2016-05-12T00:15:12.001Z,0
2016-05-12T00:16:12.426Z,0
2016-05-12T00:17:11.990Z,0
2016-05-12T00:18:11.962Z,0
2016-05-12T00:19:11.824Z,0
2016-05-12T00:20:11.796Z,0
2016-05-12T00:21:11.954Z,0
2016-05-12T00:22:11.926Z,0
2016-05-12T00:23:11.772Z,0
2016-05-12T00:24:11.901Z,0
2016-05-12T00:25:12.107Z,0
2016-05-12T00:26:11.734Z,0
2016-05-12T00:27:11.564Z,0
2016-05-12T00:28:11.708Z,0
2016-05-12T00:29:11.694Z,0
2016-05-12T00:30:11.838Z,0
2016-05-12T00:31:11.841Z,0
2016-05-12T00:32:11.812Z,0
2016-05-12T00:33:11.644Z,0
2016-05-12T00:34:11.661Z,0
2016-05-12T00:35:11.774Z,0
2016-05-12T00:36:11.777Z,0
2016-05-12T00:37:11.763Z,0
2016-05-12T00:38:11.750Z,0
2016-05-12T00:39:11.738Z,0
2016-05-12T00:40:11.584Z,0
2016-05-12T00:41:11.915Z,0
2016-05-12T00:42:11.699Z,0
2016-05-12T00:43:11.545Z,0
2016-05-12T00:44:11.688Z,0
2016-05-12T00:45:11.675Z,0
2016-05-12T00:46:11.787Z,0
2016-05-12T00:47:11.650Z,0
2016-05-12T00:48:11.637Z,0
2016-05-12T00:49:11.624Z,0
2016-05-12T00:50:11.470Z,0
2016-05-12T00:51:11.442Z,0
2016-05-12T00:52:11.444Z,0
2016-05-12T00:53:11.587Z,0
2016-05-12T00:54:11.575Z,0
2016-05-12T00:55:11.562Z,0
2016-05-12T00:56:11.548Z,0
2016-05-12T00:57:11.395Z,0
2016-05-12T00:58:11.226Z,0
2016-05-12T00:59:11.510Z,0
2016-05-12T01:00:11.512Z,0
2016-05-12T01:01:11.514Z,0
2016-05-12T01:02:11.675Z,0
2016-05-12T01:03:11.318Z,0
2016-05-12T01:04:11.461Z,0
2016-05-12T01:05:11.291Z,0
2016-05-12T01:06:11.450Z,0
2016-05-12T01:07:11.281Z,0
2016-05-12T01:08:11.425Z,0
2016-05-12T01:09:11.241Z,0
2016-05-12T01:10:11.383Z,0
2016-05-12T01:11:11.386Z,0
2016-05-12T01:12:11.357Z,0
2016-05-12T01:13:11.360Z,0
2016-05-12T01:14:11.191Z,0
2016-05-12T01:15:11.335Z,0
2016-05-12T01:16:11.353Z,0
2016-05-12T01:17:11.308Z,0
2016-05-12T01:18:11.295Z,0
2016-05-12T01:19:11.188Z,0
2016-05-12T01:20:11.270Z,0
2016-05-12T01:21:11.272Z,0
2016-05-12T01:22:11.276Z,0
2016-05-12T01:23:11.106Z,0
2016-05-12T01:24:11.234Z,0
2016-05-12T01:25:11.221Z,0
2016-05-12T01:26:11.207Z,0
2016-05-12T01:27:11.242Z,0
2016-05-12T01:28:10.884Z,0
2016-05-12T01:29:11.169Z,0
2016-05-12T01:30:11.000Z,0
2016-05-12T01:31:11.003Z,0
2016-05-12T01:32:10.833Z,0
2016-05-12T01:33:11.133Z,0
2016-05-12T01:34:11.119Z,0
2016-05-12T01:35:11.106Z,0
2016-05-12T01:36:11.094Z,0
2016-05-12T01:37:11.081Z,0
2016-05-12T01:38:10.912Z,0
2016-05-12T01:39:10.914Z,0
2016-05-12T01:40:10.902Z,0
2016-05-12T01:41:11.029Z,0
2016-05-12T01:42:10.876Z,0
2016-05-12T01:43:11.019Z,0
2016-05-12T01:44:10.990Z,0
2016-05-12T01:45:10.993Z,0
2016-05-12T01:46:11.152Z,0
2016-05-12T01:47:10.968Z,0
2016-05-12T01:48:10.954Z,0
2016-05-12T01:49:10.941Z,0
2016-05-12T01:50:10.944Z,0
2016-05-12T01:51:10.931Z,0
2016-05-12T01:52:10.934Z,0
2016-05-12T01:53:10.921Z,0
2016-05-12T01:54:10.892Z,0
2016-05-12T01:55:10.895Z,0
2016-05-12T01:56:10.882Z,0
2016-05-12T01:57:10.870Z,0
2016-05-12T01:58:10.840Z,0
2016-05-12T01:59:10.671Z,0
2016-05-12T02:00:10.503Z,0
2016-05-12T02:01:10.817Z,0
2016-05-12T02:02:10.647Z,0
2016-05-12T02:03:10.635Z,0
2016-05-12T02:04:10.467Z,0
2016-05-12T02:05:10.766Z,0
2016-05-12T02:06:10.752Z,0
2016-05-12T02:07:10.755Z,0
2016-05-12T02:08:10.727Z,0
2016-05-12T02:09:10.714Z,0
2016-05-12T02:10:10.560Z,0
2016-05-12T02:11:10.703Z,0
2016-05-12T02:12:10.675Z,0
2016-05-12T02:13:10.662Z,0
2016-05-12T02:14:10.352Z,0
2016-05-12T02:15:10.636Z,0
2016-05-12T02:16:10.638Z,0
2016-05-12T02:17:10.674Z,0
2016-05-12T02:18:10.597Z,0
2016-05-12T02:19:10.631Z,0
2016-05-12T02:20:10.588Z,0
2016-05-12T02:21:10.574Z,0
2016-05-12T02:22:10.562Z,0
2016-05-12T02:23:10.548Z,0
2016-05-12T02:24:10.379Z,0
2016-05-12T02:25:10.366Z,0
2016-05-12T02:26:10.510Z,0
2016-05-12T02:27:10.512Z,0
2016-05-12T02:28:10.343Z,0
2016-05-12T02:29:10.470Z,0
2016-05-12T02:30:10.473Z,0
2016-05-12T02:31:10.461Z,0
2016-05-12T02:32:10.448Z,0
2016-05-12T02:33:10.451Z,0
2016-05-12T02:34:10.562Z,0
2016-05-12T02:35:10.314Z,0
2016-05-12T02:36:10.256Z,0
2016-05-12T02:37:10.398Z,0
2016-05-12T02:38:10.400Z,0
2016-05-12T02:39:10.373Z,0
2016-05-12T02:40:10.360Z,0
2016-05-12T02:41:10.253Z,0
2016-05-12T02:42:10.334Z,0
2016-05-12T02:43:10.664Z,0
2016-05-12T02:44:10.324Z,0
2016-05-12T02:45:10.294Z,0
2016-05-12T02:46:10.313Z,0
2016-05-12T02:47:10.129Z,0
2016-05-12T02:48:10.257Z,0
2016-05-12T02:49:10.243Z,0
2016-05-12T02:50:10.277Z,0
2016-05-12T02:51:10.311Z,0
2016-05-12T02:52:10.221Z,0
2016-05-12T02:53:10.051Z,0
2016-05-12T02:54:10.179Z,0
2016-05-12T02:55:10.165Z,0
2016-05-12T02:56:10.168Z,0
2016-05-12T02:57:09.998Z,0
2016-05-12T02:58:10.126Z,0
2016-05-12T02:59:10.130Z,0
2016-05-12T03:00:10.117Z,0
2016-05-12T03:01:10.167Z,0
2016-05-12T03:02:10.153Z,0
2016-05-12T03:03:09.937Z,0
2016-05-12T03:04:10.111Z,0
2016-05-12T03:05:10.068Z,0
2016-05-12T03:06:09.930Z,0
2016-05-12T03:07:10.042Z,0
2016-05-12T03:08:10.013Z,0
2016-05-12T03:09:09.844Z,0
2016-05-12T03:10:10.003Z,0
2016-05-12T03:11:09.834Z,0
2016-05-12T03:12:09.805Z,0
2016-05-12T03:13:09.824Z,0
2016-05-12T03:14:09.952Z,0
2016-05-12T03:15:09.938Z,0
2016-05-12T03:16:09.925Z,0
2016-05-12T03:17:09.802Z,0
2016-05-12T03:18:09.900Z,0
2016-05-12T03:19:09.590Z,0
2016-05-12T03:20:09.889Z,0
2016-05-12T03:21:09.877Z,0
2016-05-12T03:22:09.863Z,0
2016-05-12T03:23:09.693Z,0
2016-05-12T03:24:09.821Z,0
2016-05-12T03:25:09.809Z,0
2016-05-12T03:26:09.640Z,0
2016-05-12T03:27:09.782Z,0
2016-05-12T03:28:09.614Z,0
2016-05-12T03:29:09.757Z,0
2016-05-12T03:30:09.759Z,0
2016-05-12T03:31:09.762Z,0
2016-05-12T03:32:09.937Z,0
2016-05-12T03:33:09.721Z,0
2016-05-12T03:34:09.708Z,0
2016-05-12T03:35:09.695Z,0
2016-05-12T03:36:09.666Z,0
2016-05-12T03:37:09.669Z,0
2016-05-12T03:38:09.500Z,0
2016-05-12T03:39:09.487Z,0
2016-05-12T03:40:09.631Z,0
2016-05-12T03:41:09.461Z,0
2016-05-12T03:42:09.604Z,0
2016-05-12T03:43:09.435Z,5
2016-05-12T03:44:09.797Z,5
2016-05-12T03:45:09.566Z,5
2016-05-12T03:46:09.568Z,5
2016-05-12T03:47:09.399Z,5
2016-05-12T03:48:09.527Z,5
2016-05-12T03:49:09.530Z,5
2016-05-12T03:50:09.219Z,5
2016-05-12T03:51:09.488Z,5
2016-05-12T03:52:09.350Z,5
2016-05-12T03:53:09.478Z,5
2016-05-12T03:54:09.309Z,10
2016-05-12T03:55:09.468Z,10
2016-05-12T03:56:09.439Z,10
2016-05-12T03:57:09.426Z,10
2016-05-12T03:58:09.429Z,10
2016-05-12T03:59:09.416Z,10
2016-05-12T04:00:09.404Z,10
2016-05-12T04:01:09.781Z,15
2016-05-12T04:02:09.065Z,15
2016-05-12T04:03:09.192Z,15
2016-05-12T04:04:09.336Z,15
2016-05-12T04:05:09.323Z,15
2016-05-12T04:06:09.310Z,15
2016-05-12T04:07:09.140Z,15
2016-05-12T04:08:09.300Z,20
2016-05-12T04:09:09.270Z,20
2016-05-12T04:10:09.102Z,20
2016-05-12T04:11:09.245Z,20
2016-05-12T04:12:09.092Z,20
2016-05-12T04:13:09.235Z,20
2016-05-12T04:14:09.206Z,20
2016-05-12T04:15:09.052Z,25
2016-05-12T04:16:09.039Z,25
2016-05-12T04:17:09.183Z,25
2016-05-12T04:18:09.169Z,25
2016-05-12T04:19:09.017Z,25
2016-05-12T04:20:09.160Z,25
2016-05-12T04:21:09.147Z,25
2016-05-12T04:22:09.118Z,25
2016-05-12T04:23:09.105Z,30
2016-05-12T04:24:09.107Z,30
2016-05-12T04:25:08.923Z,30
2016-05-12T04:26:09.066Z,30
2016-05-12T04:27:09.116Z,30
2016-05-12T04:28:09.056Z,30
2016-05-12T04:29:09.043Z,30
2016-05-12T04:30:09.031Z,30
2016-05-12T04:31:09.018Z,35
2016-05-12T04:32:09.207Z,35
2016-05-12T04:33:08.976Z,35
2016-05-12T04:34:08.979Z,35
2016-05-12T04:35:08.965Z,35
2016-05-12T04:36:08.953Z,35
2016-05-12T04:37:09.142Z,35
2016-05-12T04:38:08.928Z,35
2016-05-12T04:39:08.774Z,40
2016-05-12T04:40:08.901Z,40
2016-05-12T04:41:08.950Z,40
2016-05-12T04:42:08.734Z,40
2016-05-12T04:43:08.877Z,40
2016-05-12T04:44:08.569Z,40
2016-05-12T04:45:08.837Z,40
2016-05-12T04:46:08.667Z,40
2016-05-12T04:47:09.123Z,40
2016-05-12T04:48:08.813Z,45
2016-05-12T04:49:08.785Z,45
2016-05-12T04:50:08.771Z,45
2016-05-12T04:51:08.775Z,45
2016-05-12T04:52:08.761Z,45
2016-05-12T04:53:08.608Z,45
2016-05-12T04:54:08.720Z,45
2016-05-12T04:55:08.566Z,45
2016-05-12T04:56:08.819Z,45
2016-05-12T04:57:08.744Z,50
2016-05-12T04:58:08.684Z,50
2016-05-12T04:59:08.671Z,50
2016-05-12T05:00:08.674Z,50
2016-05-12T05:01:08.489Z,50
2016-05-12T05:02:08.492Z,50
2016-05-12T05:03:08.603Z,50
2016-05-12T05:04:08.310Z,50
2016-05-12T05:05:08.453Z,50
2016-05-12T05:06:08.424Z,50
2016-05-12T05:07:08.568Z,55
2016-05-12T05:08:08.554Z,55
2016-05-12T05:09:08.542Z,55
2016-05-12T05:10:08.544Z,55
2016-05-12T05:11:08.531Z,55
2016-05-12T05:12:11.347Z,55
2016-05-12T05:13:08.350Z,60
2016-05-12T05:14:08.320Z,60
2016-05-12T05:15:08.480Z,60
2016-05-12T05:16:08.482Z,60
2016-05-12T05:17:08.172Z,60
2016-05-12T05:18:08.285Z,60
2016-05-12T05:19:08.288Z,60
2016-05-12T05:20:08.446Z,60
2016-05-12T05:21:08.089Z,60
2016-05-12T05:22:08.405Z,65
2016-05-12T05:23:08.376Z,65
2016-05-12T05:24:08.239Z,65
2016-05-12T05:25:08.366Z,65
2016-05-12T05:26:08.353Z,65
2016-05-12T05:27:08.340Z,65
2016-05-12T05:28:08.312Z,65
2016-05-12T05:29:08.314Z,65
2016-05-12T05:30:08.004Z,65
2016-05-12T05:31:08.288Z,65
2016-05-12T05:32:08.073Z,70
2016-05-12T05:33:08.262Z,70
2016-05-12T05:34:08.093Z,70
2016-05-12T05:35:08.096Z,70
2016-05-12T05:36:08.254Z,70
2016-05-12T05:37:07.914Z,70
2016-05-12T05:38:08.056Z,70
2016-05-12T05:39:08.201Z,70
2016-05-12T05:40:08.188Z,70
2016-05-12T05:41:08.175Z,70
2016-05-12T05:42:08.162Z,70
2016-05-12T05:43:08.148Z,70
2016-05-12T05:44:07.979Z,75
2016-05-12T05:45:08.123Z,70
2016-05-12T05:46:07.969Z,70
2016-05-12T05:47:07.800Z,70
2016-05-12T05:48:08.116Z,70
2016-05-12T05:49:07.930Z,75
2016-05-12T05:50:07.761Z,75
2016-05-12T05:51:07.905Z,75
2016-05-12T05:52:08.047Z,75
2016-05-12T05:53:07.722Z,75
2016-05-12T05:54:08.021Z,75
2016-05-12T05:55:08.009Z,75
2016-05-12T05:56:08.013Z,75
2016-05-12T05:57:07.983Z,80
2016-05-12T05:58:07.673Z,80
2016-05-12T05:59:07.973Z,80
2016-05-12T06:00:07.804Z,80
2016-05-12T06:01:07.947Z,80
2016-05-12T06:02:08.793Z,80
2016-05-12T06:03:07.937Z,80
2016-05-12T06:04:07.768Z,80
2016-05-12T06:05:07.912Z,80
2016-05-12T06:06:07.882Z,85
2016-05-12T06:07:07.901Z,85
2016-05-12T06:08:07.872Z,85
2016-05-12T06:09:07.718Z,80
2016-05-12T06:10:07.845Z,85
2016-05-12T06:11:07.678Z,85
2016-05-12T06:12:07.820Z,85
2016-05-12T06:13:07.651Z,85
2016-05-12T06:14:07.669Z,85
2016-05-12T06:15:07.797Z,90
2016-05-12T06:16:07.628Z,90
2016-05-12T06:17:07.459Z,90
2016-05-12T06:18:07.602Z,95
2016-05-12T06:19:07.745Z,95
2016-05-12T06:20:07.764Z,100
2016-05-12T06:21:07.735Z,100
2016-05-12T06:22:07.722Z,100
2016-05-12T06:23:07.741Z,105
2016-05-12T06:24:07.696Z,105
2016-05-12T06:25:07.543Z,105
2016-05-12T06:26:07.358Z,105
2016-05-12T06:27:07.517Z,105
2016-05-12T06:28:07.676Z,105
2016-05-12T06:29:07.647Z,105
2016-05-12T06:30:07.635Z,100
2016-05-12T06:31:07.637Z,100
2016-05-12T06:32:07.984Z,100
2016-05-12T06:33:07.611Z,100
2016-05-12T06:34:07.599Z,100
2016-05-12T06:35:07.445Z,100
2016-05-12T06:36:07.572Z,100
2016-05-12T06:37:07.560Z,100
2016-05-12T06:38:07.562Z,100
2016-05-12T06:39:07.393Z,100
2016-05-12T06:40:07.396Z,100
2016-05-12T06:41:07.571Z,100
2016-05-12T06:42:07.354Z,100
2016-05-12T06:43:07.357Z,100
2016-05-12T06:44:07.500Z,100
2016-05-12T06:45:07.487Z,100
2016-05-12T06:46:07.490Z,100
2016-05-12T06:47:07.461Z,105
2016-05-12T06:48:07.292Z,105
2016-05-12T06:49:07.154Z,105
2016-05-12T06:50:07.481Z,105
2016-05-12T06:51:07.511Z,105
2016-05-12T06:52:07.556Z,105
2016-05-12T06:53:07.571Z,105
2016-05-12T06:54:07.461Z,105
2016-05-12T06:55:07.619Z,105
2016-05-12T06:56:07.623Z,105
2016-05-12T06:57:07.624Z,105
2016-05-12T06:58:07.642Z,110
2016-05-12T06:59:07.644Z,105
2016-05-12T07:00:07.637Z,105
2016-05-12T07:01:07.630Z,105
2016-05-12T07:02:07.747Z,110
2016-05-12T07:03:07.631Z,110
2016-05-12T07:04:07.466Z,110
2016-05-12T07:05:07.455Z,110
2016-05-12T07:06:09.632Z,110
2016-05-12T07:07:07.590Z,110
2016-05-12T07:08:07.594Z,110
2016-05-12T07:09:07.427Z,110
2016-05-12T07:10:07.572Z,110
2016-05-12T07:11:07.419Z,115
2016-05-12T07:12:07.547Z,115
2016-05-12T07:13:07.393Z,115
2016-05-12T07:14:07.554Z,115
2016-05-12T07:15:07.385Z,115
2016-05-12T07:16:07.372Z,115
2016-05-12T07:17:07.922Z,115
2016-05-12T07:18:07.534Z,115
2016-05-12T07:19:07.350Z,120
2016-05-12T07:20:07.478Z,120
2016-05-12T07:21:07.480Z,120
2016-05-12T07:22:07.155Z,120
2016-05-12T07:23:07.455Z,120
2016-05-12T07:24:07.442Z,120
2016-05-12T07:25:07.289Z,140
2016-05-12T07:26:07.291Z,675
2016-05-12T07:27:07.418Z,1170
2016-05-12T07:28:07.406Z,1215
2016-05-12T07:29:07.408Z,1255
2016-05-12T07:30:07.395Z,1285
2016-05-12T07:31:07.242Z,1280
2016-05-12T07:32:07.400Z,1285
2016-05-12T07:33:07.403Z,1290
2016-05-12T07:34:07.219Z,1270
2016-05-12T07:35:07.205Z,1250
2016-05-12T07:36:07.208Z,1330
2016-05-12T07:37:07.368Z,1470
2016-05-12T07:38:07.057Z,1470
2016-05-12T07:39:07.357Z,1350
2016-05-12T07:40:07.360Z,1235
2016-05-12T07:41:07.191Z,1230
2016-05-12T07:42:07.177Z,1295
2016-05-12T07:43:07.352Z,1375
2016-05-12T07:44:07.339Z,1395
2016-05-12T07:45:07.015Z,1370
2016-05-12T07:46:07.173Z,1360
2016-05-12T07:47:07.316Z,1390
2016-05-12T07:48:07.162Z,1410
2016-05-12T07:49:07.009Z,1415
2016-05-12T07:50:07.153Z,1425
2016-05-12T07:51:07.014Z,1445
2016-05-12T07:52:07.612Z,1440
2016-05-12T07:53:07.332Z,1440
2016-05-12T07:54:07.320Z,1455
2016-05-12T07:55:07.306Z,1470
2016-05-12T07:56:07.153Z,1450
2016-05-12T07:57:07.328Z,1365
2016-05-12T07:58:07.314Z,1280
2016-05-12T07:59:07.302Z,1250
2016-05-12T08:00:07.304Z,1320
2016-05-12T08:01:07.166Z,1360
2016-05-12T08:02:07.200Z,1365
2016-05-12T08:03:07.297Z,1330
2016-05-12T08:04:07.299Z,1035
2016-05-12T08:05:07.302Z,1055
2016-05-12T08:06:07.149Z,1175
2016-05-12T08:07:07.183Z,1325
2016-05-12T08:08:07.185Z,1470
2016-05-12T08:09:07.343Z,1575
2016-05-12T08:10:07.316Z,1585
2016-05-12T08:11:07.210Z,1600
2016-05-12T08:12:07.165Z,1605
2016-05-12T08:13:07.152Z,1600
2016-05-12T08:14:07.310Z,1570
2016-05-12T08:15:07.157Z,1545
2016-05-12T08:16:07.301Z,1520
2016-05-12T08:17:07.850Z,1500
2016-05-12T08:18:06.994Z,1555
2016-05-12T08:19:07.012Z,1600
2016-05-12T08:20:07.170Z,1620
2016-05-12T08:21:07.346Z,1645
2016-05-12T08:22:07.160Z,1685
2016-05-12T08:23:07.319Z,1715
2016-05-12T08:24:07.322Z,1680
2016-05-12T08:25:07.325Z,1550
2016-05-12T08:26:07.030Z,1400
2016-05-12T08:27:07.173Z,1290
2016-05-12T08:28:07.176Z,1315
2016-05-12T08:29:07.319Z,1495
2016-05-12T08:30:07.025Z,1705
2016-05-12T08:31:08.247Z,1800
2016-05-12T08:32:07.484Z,1770
2016-05-12T08:33:06.894Z,1770
2016-05-12T08:34:07.350Z,1730
2016-05-12T08:35:07.352Z,1785
2016-05-12T08:36:07.214Z,1805
2016-05-12T08:37:07.372Z,1805
2016-05-12T08:38:07.360Z,1815
2016-05-12T08:39:07.347Z,1795
2016-05-12T08:40:07.208Z,1775
2016-05-12T08:41:07.571Z,1750
2016-05-12T08:42:07.354Z,1780
2016-05-12T08:43:07.045Z,1780
2016-05-12T08:44:07.204Z,1730
2016-05-12T08:45:07.363Z,1730
2016-05-12T08:46:07.365Z,1720
2016-05-12T08:47:07.931Z,1190
2016-05-12T08:48:07.215Z,1295
2016-05-12T08:49:07.373Z,1015
2016-05-12T08:50:06.907Z,460
2016-05-12T08:51:07.379Z,1115
2016-05-12T08:52:07.225Z,460
2016-05-12T08:53:07.384Z,1200
2016-05-12T08:54:07.387Z,775
2016-05-12T08:55:07.373Z,1705
2016-05-12T08:56:07.393Z,1370
2016-05-12T08:57:07.379Z,340
2016-05-12T08:58:07.413Z,915
2016-05-12T08:59:07.401Z,780
2016-05-12T09:00:07.387Z,685
2016-05-12T09:01:07.389Z,685
2016-05-12T09:02:07.456Z,1230
2016-05-12T09:03:07.239Z,725
2016-05-12T09:04:07.398Z,505
2016-05-12T09:05:07.400Z,675
2016-05-12T09:06:07.091Z,570
2016-05-12T09:07:07.391Z,510
2016-05-12T09:08:08.049Z,715
2016-05-12T09:09:07.552Z,340
2016-05-12T09:10:07.446Z,835
2016-05-12T09:11:07.402Z,1700
2016-05-12T09:12:07.404Z,985
2016-05-12T09:13:08.251Z,630
2016-05-12T09:14:07.424Z,640
2016-05-12T09:15:07.257Z,625
2016-05-12T09:16:07.399Z,765
2016-05-12T09:17:08.215Z,530
2016-05-12T09:18:07.233Z,1230
2016-05-12T09:19:07.407Z,520
2016-05-12T09:20:07.238Z,1070
2016-05-12T09:21:07.398Z,685
2016-05-12T09:22:07.400Z,540
2016-05-12T09:23:07.403Z,645
2016-05-12T09:24:07.389Z,1055
2016-05-12T09:25:07.236Z,1210
2016-05-12T09:26:11.301Z,900
2016-05-12T09:27:07.366Z,1115
2016-05-12T09:28:07.384Z,525
2016-05-12T09:29:07.215Z,520
2016-05-12T09:30:07.390Z,1510
2016-05-12T09:31:08.174Z,345
2016-05-12T09:32:08.333Z,335
2016-05-12T09:33:07.367Z,730
2016-05-12T09:34:07.369Z,320
2016-05-12T09:35:07.388Z,270
2016-05-12T09:36:09.719Z,290
2016-05-12T09:37:07.503Z,330
2016-05-12T09:38:07.349Z,425
2016-05-12T09:39:07.196Z,300
2016-05-12T09:40:07.370Z,415
2016-05-12T09:41:09.076Z,210
2016-05-12T09:42:07.344Z,225
2016-05-12T09:43:07.362Z,275
2016-05-12T09:44:07.037Z,625
2016-05-12T09:45:07.337Z,525
2016-05-12T09:46:08.573Z,710
2016-05-12T09:47:07.343Z,235
2016-05-12T09:48:07.329Z,280
2016-05-12T09:49:07.176Z,360
2016-05-12T09:50:07.335Z,405
2016-05-12T09:51:07.321Z,235
2016-05-12T09:52:07.168Z,315
2016-05-12T09:53:07.170Z,585
2016-05-12T09:54:07.329Z,535
2016-05-12T09:55:10.207Z,675
2016-05-12T09:56:07.179Z,470
2016-05-12T09:57:07.322Z,295
2016-05-12T09:58:06.997Z,605
2016-05-12T09:59:07.327Z,270
2016-05-12T10:00:07.033Z,395
2016-05-12T10:01:07.286Z,275
2016-05-12T10:02:07.335Z,270
2016-05-12T10:03:07.276Z,645
2016-05-12T10:04:07.295Z,360
2016-05-12T10:05:07.125Z,305
2016-05-12T10:06:07.300Z,580
2016-05-12T10:07:07.271Z,425
2016-05-12T10:08:07.117Z,275
2016-05-12T10:09:07.277Z,1705
2016-05-12T10:10:07.107Z,780
2016-05-12T10:11:07.266Z,655
2016-05-12T10:12:07.252Z,625
2016-05-12T10:13:07.255Z,950
2016-05-12T10:14:07.102Z,1250
2016-05-12T10:15:07.245Z,1600
2016-05-12T10:16:07.076Z,1430
2016-05-12T10:17:07.548Z,675
2016-05-12T10:18:07.082Z,905
2016-05-12T10:19:07.272Z,1895
2016-05-12T10:20:07.227Z,1455
2016-05-12T10:21:07.246Z,1515
2016-05-12T10:22:07.232Z,595
2016-05-12T10:23:07.080Z,1920
2016-05-12T10:24:07.223Z,1950
2016-05-12T10:25:07.241Z,1990
2016-05-12T10:26:07.228Z,2100
2016-05-12T10:27:07.231Z,2115
2016-05-12T10:28:07.062Z,2135
2016-05-12T10:29:07.064Z,2100
2016-05-12T10:30:07.083Z,2105
2016-05-12T10:31:07.225Z,2080
2016-05-12T10:32:08.806Z,2045
2016-05-12T10:33:07.232Z,2020
2016-05-12T10:34:07.233Z,2085
2016-05-12T10:35:07.221Z,2120
2016-05-12T10:36:07.239Z,2100
2016-05-12T10:37:07.242Z,2065
2016-05-12T10:38:07.089Z,2115
2016-05-12T10:39:06.950Z,2135
2016-05-12T10:40:07.094Z,2095
2016-05-12T10:41:07.862Z,2150
2016-05-12T10:42:07.255Z,2215
2016-05-12T10:43:07.243Z,1320
2016-05-12T10:44:07.261Z,2200
2016-05-12T10:45:07.107Z,2095
2016-05-12T10:46:07.282Z,1215
2016-05-12T10:47:07.129Z,2200
2016-05-12T10:48:07.288Z,515
2016-05-12T10:49:07.259Z,1530
2016-05-12T10:50:07.276Z,2280
2016-05-12T10:51:07.124Z,870
2016-05-12T10:52:07.143Z,2175
2016-05-12T10:53:07.316Z,2135
2016-05-12T10:54:07.288Z,1170
2016-05-12T10:55:06.978Z,2060
2016-05-12T10:56:07.309Z,1065
2016-05-12T10:57:07.312Z,1905
2016-05-12T10:58:07.299Z,1710
2016-05-12T10:59:07.301Z,1655
2016-05-12T11:00:07.303Z,1780
2016-05-12T11:01:07.166Z,1975
2016-05-12T11:02:07.216Z,440
2016-05-12T11:03:07.311Z,2180
2016-05-12T11:04:07.189Z,2170
2016-05-12T11:05:07.333Z,2075
2016-05-12T11:06:07.336Z,2050
2016-05-12T11:07:07.339Z,2020
2016-05-12T11:08:07.342Z,1885
2016-05-12T11:09:07.358Z,1625
2016-05-12T11:10:07.206Z,380
2016-05-12T11:11:07.350Z,440
2016-05-12T11:12:07.352Z,1415
2016-05-12T11:13:07.355Z,1530
2016-05-12T11:14:07.372Z,1725
2016-05-12T11:15:07.375Z,390
2016-05-12T11:16:07.207Z,1980
2016-05-12T11:17:07.912Z,425
2016-05-12T11:18:07.383Z,455
2016-05-12T11:19:07.230Z,730
2016-05-12T11:20:07.373Z,475
2016-05-12T11:21:07.235Z,490
2016-05-12T11:22:07.394Z,2190
2016-05-12T11:23:07.396Z,420
2016-05-12T11:24:07.399Z,2230
2016-05-12T11:25:07.402Z,2205
2016-05-12T11:26:07.421Z,395
2016-05-12T11:27:07.298Z,2165
2016-05-12T11:28:07.426Z,2200
2016-05-12T11:29:07.413Z,465
2016-05-12T11:30:07.432Z,355
2016-05-12T11:31:07.418Z,1980
2016-05-12T11:32:07.467Z,380
2016-05-12T11:33:07.440Z,1940
2016-05-12T11:34:07.426Z,1565
2016-05-12T11:35:07.272Z,1695
2016-05-12T11:36:07.495Z,845
2016-05-12T11:37:07.731Z,1890
2016-05-12T11:38:07.469Z,1960
2016-05-12T11:39:07.330Z,1865
2016-05-12T11:40:07.459Z,365
2016-05-12T11:41:07.305Z,345
2016-05-12T11:42:07.479Z,305
2016-05-12T11:43:07.467Z,1125
2016-05-12T11:44:07.328Z,2170
2016-05-12T11:45:07.347Z,370
2016-05-12T11:46:07.459Z,940
2016-05-12T11:47:08.165Z,2145
2016-05-12T11:48:07.152Z,2120
2016-05-12T11:49:07.482Z,2095
2016-05-12T11:50:07.174Z,600
2016-05-12T11:51:07.504Z,2015
2016-05-12T11:52:07.490Z,2055
2016-05-12T11:53:07.368Z,2070
2016-05-12T11:54:07.512Z,2105
2016-05-12T11:55:07.499Z,2160
2016-05-12T11:56:07.532Z,2120
2016-05-12T11:57:07.504Z,2100
2016-05-12T11:58:07.554Z,2070
2016-05-12T11:59:07.509Z,2125
2016-05-12T12:00:07.356Z,1520
2016-05-12T12:01:07.374Z,455
2016-05-12T12:02:08.284Z,400
2016-05-12T12:03:07.584Z,970
2016-05-12T12:04:07.507Z,390
2016-05-12T12:05:07.384Z,2120
2016-05-12T12:06:07.544Z,960
2016-05-12T12:07:07.531Z,2050
2016-05-12T12:08:07.392Z,2105
2016-05-12T12:09:07.537Z,2065
2016-05-12T12:10:07.398Z,2065
2016-05-12T12:11:07.760Z,2065
2016-05-12T12:12:07.544Z,2110
2016-05-12T12:13:07.594Z,2115
2016-05-12T12:14:07.565Z,2075
2016-05-12T12:15:07.427Z,2155
2016-05-12T12:16:07.414Z,2145
2016-05-12T12:17:07.261Z,2100
2016-05-12T12:18:07.420Z,2015
2016-05-12T12:19:07.438Z,1915
2016-05-12T12:20:07.582Z,1835
2016-05-12T12:21:07.568Z,335
2016-05-12T12:22:07.588Z,740
2016-05-12T12:23:07.590Z,1765
2016-05-12T12:24:07.624Z,1795
2016-05-12T12:25:07.595Z,1955
2016-05-12T12:26:07.598Z,2020
2016-05-12T12:27:07.679Z,1975
2016-05-12T12:28:07.650Z,2000
2016-05-12T12:29:07.621Z,2025
2016-05-12T12:30:07.623Z,1955
2016-05-12T12:31:07.470Z,1940
2016-05-12T12:32:07.802Z,1990
2016-05-12T12:33:07.476Z,1985
2016-05-12T12:34:07.494Z,1955
2016-05-12T12:35:07.637Z,1265
2016-05-12T12:36:07.484Z,1350
2016-05-12T12:37:07.190Z,1385
2016-05-12T12:38:07.506Z,1220
2016-05-12T12:39:07.523Z,1160
2016-05-12T12:40:07.651Z,1285
2016-05-12T12:41:08.092Z,1535
2016-05-12T12:42:07.672Z,1735
2016-05-12T12:43:07.519Z,1895
2016-05-12T12:44:07.521Z,1965
2016-05-12T12:45:07.696Z,1940
2016-05-12T12:46:07.699Z,1875
2016-05-12T12:47:08.060Z,1985
2016-05-12T12:48:07.532Z,1980
2016-05-12T12:49:07.706Z,1920
2016-05-12T12:50:07.725Z,2035
2016-05-12T12:51:07.727Z,390
2016-05-12T12:52:07.699Z,340
2016-05-12T12:53:07.561Z,310
2016-05-12T12:54:07.735Z,345
2016-05-12T12:55:07.754Z,1250
2016-05-12T12:56:07.741Z,1710
2016-05-12T12:57:07.572Z,425
2016-05-12T12:58:07.731Z,350
2016-05-12T12:59:07.577Z,340
2016-05-12T13:00:07.737Z,480
2016-05-12T13:01:07.754Z,1925
2016-05-12T13:02:08.398Z,1960
2016-05-12T13:03:07.603Z,525
2016-05-12T13:04:07.762Z,1795
2016-05-12T13:05:07.609Z,1805
2016-05-12T13:06:07.767Z,1770
2016-05-12T13:07:07.786Z,1805
2016-05-12T13:08:07.617Z,1845
2016-05-12T13:09:07.619Z,1785
2016-05-12T13:10:07.638Z,1720
2016-05-12T13:11:07.781Z,1680
2016-05-12T13:12:07.784Z,1690
2016-05-12T13:13:07.662Z,1720
2016-05-12T13:14:07.790Z,1770
2016-05-12T13:15:07.807Z,1865
2016-05-12T13:16:07.639Z,1910
2016-05-12T13:17:08.266Z,1875
2016-05-12T13:18:07.831Z,1905
2016-05-12T13:19:08.069Z,1850
2016-05-12T13:20:07.821Z,1815
2016-05-12T13:21:07.668Z,1790
2016-05-12T13:22:07.826Z,1840
2016-05-12T13:23:07.657Z,1850
2016-05-12T13:24:07.832Z,1755
2016-05-12T13:25:07.678Z,1835
2016-05-12T13:26:07.852Z,1815
2016-05-12T13:27:07.699Z,1880
2016-05-12T13:28:07.843Z,1815
2016-05-12T13:29:07.470Z,1845
2016-05-12T13:30:07.926Z,1875
2016-05-12T13:31:07.865Z,1820
2016-05-12T13:32:07.916Z,1725
2016-05-12T13:33:07.903Z,355
2016-05-12T13:34:07.718Z,315
2016-05-12T13:35:07.565Z,325
2016-05-12T13:36:07.739Z,285
2016-05-12T13:37:07.726Z,295
2016-05-12T13:38:07.932Z,355
2016-05-12T13:39:07.887Z,1565
2016-05-12T13:40:07.890Z,1675
2016-05-12T13:41:07.925Z,1655
2016-05-12T13:42:07.911Z,1735
2016-05-12T13:43:07.914Z,1740
2016-05-12T13:44:07.776Z,355
2016-05-12T13:45:07.763Z,1720
2016-05-12T13:46:07.922Z,1695
2016-05-12T13:47:07.488Z,1645
2016-05-12T13:48:07.786Z,1630
2016-05-12T13:49:07.837Z,1610
2016-05-12T13:50:07.791Z,1620
2016-05-12T13:51:07.951Z,1630
2016-05-12T13:52:07.830Z,1685
2016-05-12T13:53:07.785Z,1725
2016-05-12T13:54:07.647Z,1810
2016-05-12T13:55:08.102Z,1810
2016-05-12T13:56:08.012Z,1750
2016-05-12T13:57:08.061Z,1690